Time;durP1;ratioP1;P1;durP2;ratioP2;P2;SDS_P1;SDS_P2;PMS_P1;PMS_P2;Temp;Humidity;BMP_temperature;BMP_pressure;BME280_temperature;BME280_humidity;BME280_pressure;Samples;Min_cycle;Max_cycle;Signal;HPM_P1;HPM_P2
2021/12/20 00:00:40;;;;;;;2.55;0.38;;;7.80;94.90;;;;;;4793723;29;20473;-77
2021/12/20 00:03:07;;;;;;;1.48;0.20;;;7.80;94.90;;;;;;4810962;29;20059;-77
2021/12/20 00:05:34;;;;;;;0.98;0.25;;;7.80;95.00;;;;;;4821896;29;20103;-77
2021/12/20 00:08:01;;;;;;;1.58;0.35;;;7.80;95.00;;;;;;4808593;29;20689;-77
2021/12/20 00:10:28;;;;;;;1.33;0.40;;;7.80;94.90;;;;;;4808918;29;20066;-77
2021/12/20 00:12:55;;;;;;;0.98;0.30;;;7.80;94.90;;;;;;4806761;29;20494;-77
2021/12/20 00:15:22;;;;;;;1.20;0.20;;;7.80;94.90;;;;;;4825031;29;20106;-77
2021/12/20 00:17:49;;;;;;;3.30;0.50;;;7.80;94.90;;;;;;4809787;29;20694;-77
2021/12/20 00:20:22;;;;;;;1.45;0.20;;;7.80;94.80;;;;;;4821025;29;20948;-77
2021/12/20 00:22:49;;;;;;;3.00;0.13;;;7.70;94.80;;;;;;4822788;29;20051;-77
2021/12/20 00:25:16;;;;;;;0.88;0.10;;;7.70;94.80;;;;;;4809222;29;20104;-78
2021/12/20 00:27:43;;;;;;;0.45;0.10;;;7.70;94.80;;;;;;4805995;29;20050;-77
2021/12/20 00:30:11;;;;;;;1.00;0.22;;;7.70;94.90;;;;;;4822261;29;20043;-77
2021/12/20 00:32:39;;;;;;;0.25;0.05;;;7.70;94.90;;;;;;4792657;29;20058;-77
2021/12/20 00:35:07;;;;;;;1.55;0.20;;;7.70;94.90;;;;;;4806210;29;20047;-78
2021/12/20 00:40:21;;;;;;;1.85;0.20;;;7.70;94.80;;;;;;4808549;29;20119;-77
2021/12/20 00:42:54;;;;;;;1.65;0.20;;;7.70;94.80;;;;;;4808121;29;20130;-78
2021/12/20 00:45:34;;;;;;;2.15;0.15;;;7.70;94.80;;;;;;4801533;29;20055;-85
2021/12/20 00:48:35;;;;;;;1.88;0.10;;;7.70;94.80;;;;;;4809909;29;20058;-84
2021/12/20 00:51:11;;;;;;;1.08;0.20;;;7.70;94.80;;;;;;4808879;29;20061;-85
2021/12/20 00:53:40;;;;;;;0.57;0.10;;;7.70;94.80;;;;;;4795744;29;20094;-82
2021/12/20 00:56:28;;;;;;;0.77;0.08;;;7.70;94.70;;;;;;4791048;29;20057;-76
2021/12/20 00:59:07;;;;;;;1.92;0.30;;;7.70;94.70;;;;;;4796868;29;20043;-85
2021/12/20 01:01:52;;;;;;;1.02;0.17;;;7.70;94.70;;;;;;4816958;29;20063;-85
2021/12/20 01:04:19;;;;;;;0.50;0.10;;;7.70;94.70;;;;;;4821494;29;20042;-84
2021/12/20 01:06:49;;;;;;;0.15;0.08;;;7.70;94.70;;;;;;4808167;29;20131;-85
2021/12/20 01:09:19;;;;;;;1.90;0.15;;;7.70;94.70;;;;;;4806833;29;20061;-84
2021/12/20 01:12:05;;;;;;;1.02;0.08;;;7.70;94.70;;;;;;4808011;29;20089;-83
2021/12/20 01:14:36;;;;;;;1.45;0.13;;;7.70;94.70;;;;;;4817284;29;20066;-76
2021/12/20 01:17:05;;;;;;;1.23;0.17;;;7.60;94.70;;;;;;4805539;29;20054;-77
2021/12/20 01:19:33;;;;;;;1.15;0.20;;;7.70;94.70;;;;;;4808785;29;20894;-76
2021/12/20 01:22:02;;;;;;;1.20;0.30;;;7.70;94.70;;;;;;4804414;29;20057;-77
2021/12/20 01:24:29;;;;;;;1.30;0.10;;;7.60;94.60;;;;;;4822701;29;20063;-77
2021/12/20 01:26:56;;;;;;;2.60;0.30;;;7.60;94.60;;;;;;4789050;29;20047;-77
2021/12/20 01:29:23;;;;;;;1.38;0.28;;;7.60;94.60;;;;;;4805519;29;20632;-76
2021/12/20 01:31:50;;;;;;;1.55;0.20;;;7.60;94.60;;;;;;4808060;29;20062;-77
2021/12/20 01:34:17;;;;;;;2.30;0.20;;;7.60;94.60;;;;;;4806810;29;20062;-76
2021/12/20 01:36:44;;;;;;;2.75;0.45;;;7.60;94.60;;;;;;4799125;29;20708;-77
2021/12/20 01:39:11;;;;;;;1.02;0.08;;;7.60;94.60;;;;;;4807721;29;20123;-77
2021/12/20 01:41:43;;;;;;;1.60;0.20;;;7.60;94.60;;;;;;4810267;29;20474;-77
2021/12/20 01:44:12;;;;;;;0.95;0.10;;;7.60;94.60;;;;;;4808701;29;20093;-77
2021/12/20 01:46:40;;;;;;;0.45;0.10;;;7.60;94.60;;;;;;4793236;29;20046;-77
2021/12/20 01:49:11;;;;;;;1.02;0.13;;;7.60;94.60;;;;;;4819015;29;20062;-77
2021/12/20 01:52:11;;;;;;;3.58;0.20;;;7.60;94.60;;;;;;4806160;29;20054;-77
2021/12/20 01:54:31;;;;;;;1.67;0.28;;;7.60;94.60;;;;;;4810054;29;20066;-76
2021/12/20 01:56:58;;;;;;;2.70;0.35;;;7.60;94.50;;;;;;4794748;29;20051;-77
2021/12/20 01:59:25;;;;;;;2.72;0.40;;;7.60;94.50;;;;;;4821526;29;20133;-77
2021/12/20 02:01:53;;;;;;;0.77;0.10;;;7.60;94.50;;;;;;4805976;29;20083;-77
2021/12/20 02:04:22;;;;;;;1.65;0.30;;;7.60;94.50;;;;;;4792712;29;20563;-77
2021/12/20 02:06:50;;;;;;;1.85;0.20;;;7.60;94.50;;;;;;4821573;29;20086;-78
2021/12/20 02:09:19;;;;;;;1.38;0.10;;;7.60;94.40;;;;;;4791732;29;20179;-77
2021/12/20 02:11:49;;;;;;;1.98;0.10;;;7.60;94.40;;;;;;4811575;29;20127;-77
2021/12/20 02:14:18;;;;;;;5.75;0.43;;;7.50;94.40;;;;;;4806144;29;20054;-77
2021/12/20 02:16:46;;;;;;;3.63;0.32;;;7.50;94.40;;;;;;4805220;29;20141;-77
2021/12/20 02:19:16;;;;;;;2.45;0.20;;;7.50;94.40;;;;;;4821503;29;20085;-77
2021/12/20 02:21:44;;;;;;;2.40;0.15;;;7.50;94.40;;;;;;4805334;29;20063;-76
2021/12/20 02:24:12;;;;;;;1.40;0.20;;;7.50;94.40;;;;;;4814194;29;20047;-77
2021/12/20 02:26:40;;;;;;;2.38;0.30;;;7.50;94.40;;;;;;4821978;29;20050;-77
2021/12/20 02:29:09;;;;;;;1.88;0.47;;;7.40;94.30;;;;;;4820706;29;20043;-77
2021/12/20 02:40:07;;;;;;;2.47;0.20;;;7.40;94.40;;;;;;4809382;29;20105;-78
2021/12/20 02:42:36;;;;;;;2.47;0.30;;;7.40;94.40;;;;;;4816917;29;20043;-77
2021/12/20 02:45:15;;;;;;;2.30;0.20;;;7.40;94.40;;;;;;4812305;29;20122;-77
2021/12/20 02:47:45;;;;;;;0.70;0.20;;;7.40;94.40;;;;;;4809682;29;20070;-76
2021/12/20 02:50:13;;;;;;;1.08;0.10;;;7.40;94.40;;;;;;4810553;29;20076;-77
2021/12/20 02:52:41;;;;;;;3.40;0.28;;;7.40;94.30;;;;;;4779205;29;20086;-77
2021/12/20 02:55:09;;;;;;;1.00;0.10;;;7.40;94.30;;;;;;4811567;29;20512;-76
2021/12/20 02:57:37;;;;;;;0.63;0.20;;;7.40;94.30;;;;;;4819466;29;20442;-77
2021/12/20 03:00:08;;;;;;;1.98;0.20;;;7.40;94.30;;;;;;4807987;29;20055;-77
2021/12/20 03:02:35;;;;;;;0.50;0.20;;;7.40;94.40;;;;;;4810764;29;20070;-76
2021/12/20 03:05:04;;;;;;;1.17;0.30;;;7.40;94.40;;;;;;4824833;29;20058;-77
2021/12/20 03:07:39;;;;;;;1.77;0.30;;;7.40;94.30;;;;;;4810096;29;20170;-76
2021/12/20 03:10:08;;;;;;;2.72;0.10;;;7.40;94.30;;;;;;4822794;29;20066;-77
2021/12/20 03:12:35;;;;;;;1.05;0.20;;;7.40;94.40;;;;;;4797192;29;20058;-77
2021/12/20 03:15:10;;;;;;;1.83;0.25;;;7.40;94.30;;;;;;4794625;29;20058;-77
2021/12/20 03:17:37;;;;;;;2.13;0.20;;;7.40;94.30;;;;;;4825533;29;20062;-77
2021/12/20 03:20:05;;;;;;;1.20;0.13;;;7.40;94.30;;;;;;4825876;29;20064;-77
2021/12/20 03:22:32;;;;;;;1.95;0.13;;;7.40;94.30;;;;;;4824529;29;20092;-78
2021/12/20 03:24:59;;;;;;;1.70;0.22;;;7.40;94.30;;;;;;4826661;29;20110;-77
2021/12/20 03:27:26;;;;;;;0.77;0.40;;;7.40;94.30;;;;;;4795658;29;20422;-77
2021/12/20 03:29:54;;;;;;;3.33;0.10;;;7.40;94.30;;;;;;4778262;29;20059;-77
2021/12/20 03:32:21;;;;;;;3.17;0.30;;;7.40;94.30;;;;;;4816232;29;20073;-77
2021/12/20 03:34:48;;;;;;;1.90;0.10;;;7.40;94.30;;;;;;4793513;29;20039;-77
2021/12/20 03:37:15;;;;;;;1.40;0.20;;;7.40;94.20;;;;;;4801959;29;20062;-77
2021/12/20 03:39:42;;;;;;;1.75;0.30;;;7.40;94.20;;;;;;4790801;29;20055;-78
2021/12/20 03:42:09;;;;;;;2.85;0.20;;;7.40;94.20;;;;;;4810739;29;20050;-77
2021/12/20 03:44:43;;;;;;;1.63;0.93;;;7.40;94.10;;;;;;4823271;29;20075;-77
2021/12/20 03:47:11;;;;;;;1.80;0.20;;;7.40;94.10;;;;;;4809107;29;20047;-77
2021/12/20 03:49:42;;;;;;;2.72;0.80;;;7.40;94.00;;;;;;4821254;29;20135;-77
2021/12/20 03:52:10;;;;;;;1.65;0.60;;;7.40;94.00;;;;;;4808396;29;20055;-77
2021/12/20 03:54:37;;;;;;;0.98;0.20;;;7.40;94.00;;;;;;4807490;29;20061;-77
2021/12/20 03:57:05;;;;;;;1.05;0.15;;;7.40;94.00;;;;;;4806561;29;20059;-77
2021/12/20 03:59:33;;;;;;;2.63;0.30;;;7.40;94.10;;;;;;4808090;29;20092;-77
2021/12/20 04:02:01;;;;;;;2.83;0.30;;;7.40;94.30;;;;;;4807653;29;20103;-77
2021/12/20 04:04:28;;;;;;;4.13;0.47;;;7.40;94.00;;;;;;4823499;29;20093;-77
2021/12/20 04:06:55;;;;;;;2.40;0.20;;;7.40;94.00;;;;;;4808642;29;20086;-77
2021/12/20 04:09:22;;;;;;;5.78;0.40;;;7.40;93.90;;;;;;4792599;29;20108;-77
2021/12/20 04:11:49;;;;;;;4.35;0.30;;;7.30;93.90;;;;;;4807083;29;20054;-77
2021/12/20 04:14:16;;;;;;;3.83;0.25;;;7.30;93.90;;;;;;4806233;29;20043;-77
2021/12/20 04:16:42;;;;;;;4.60;0.50;;;7.30;93.90;;;;;;4802125;29;20141;-77
2021/12/20 04:19:09;;;;;;;2.53;0.45;;;7.30;93.90;;;;;;4791746;29;20076;-77
2021/12/20 04:21:36;;;;;;;3.05;0.35;;;7.30;94.10;;;;;;4793817;29;20089;-77
2021/12/20 04:24:04;;;;;;;2.40;0.22;;;7.30;93.80;;;;;;4809499;29;20085;-77
2021/12/20 04:26:31;;;;;;;1.85;0.30;;;7.30;93.80;;;;;;4808387;29;20054;-77
2021/12/20 04:28:58;;;;;;;1.45;0.25;;;7.30;93.80;;;;;;4806362;29;20090;-77
2021/12/20 04:31:27;;;;;;;0.45;0.10;;;7.30;93.80;;;;;;4793990;29;20073;-77
2021/12/20 04:33:55;;;;;;;2.10;0.13;;;7.30;93.80;;;;;;4821151;29;20784;-77
2021/12/20 04:36:22;;;;;;;2.10;0.25;;;7.30;93.80;;;;;;4804456;29;20046;-76
2021/12/20 04:38:49;;;;;;;2.05;0.25;;;7.30;93.80;;;;;;4808330;29;20054;-78
2021/12/20 04:41:16;;;;;;;2.38;0.30;;;7.30;93.80;;;;;;4820248;29;20047;-77
2021/12/20 04:43:43;;;;;;;0.90;0.10;;;7.30;93.80;;;;;;4808970;29;20051;-77
2021/12/20 04:46:10;;;;;;;1.02;0.10;;;7.30;93.70;;;;;;4806832;29;20042;-77
2021/12/20 04:48:37;;;;;;;1.13;0.20;;;7.30;93.70;;;;;;4823130;29;20073;-77
2021/12/20 04:51:04;;;;;;;0.82;0.20;;;7.30;93.60;;;;;;4807622;29;20129;-77
2021/12/20 04:53:31;;;;;;;2.72;0.28;;;7.30;93.60;;;;;;4809220;29;20047;-76
2021/12/20 04:55:58;;;;;;;1.63;0.10;;;7.40;93.50;;;;;;4813219;29;20070;-78
2021/12/20 04:58:25;;;;;;;2.28;0.20;;;7.40;93.50;;;;;;4822912;29;20400;-76
2021/12/20 05:00:52;;;;;;;2.38;0.20;;;7.40;93.40;;;;;;4821616;29;20075;-76
2021/12/20 05:03:19;;;;;;;2.60;0.30;;;7.40;93.40;;;;;;4793863;29;20100;-77
2021/12/20 05:05:46;;;;;;;2.80;0.45;;;7.40;93.30;;;;;;4809687;29;20074;-76
2021/12/20 05:08:15;;;;;;;2.05;0.20;;;7.40;93.30;;;;;;4814636;29;20504;-77
2021/12/20 05:10:43;;;;;;;2.33;0.30;;;7.40;93.30;;;;;;4809176;29;20452;-77
2021/12/20 05:13:12;;;;;;;3.22;0.20;;;7.40;93.30;;;;;;4792425;29;20051;-77
2021/12/20 05:15:44;;;;;;;1.70;0.10;;;7.30;93.30;;;;;;4806733;29;20046;-77
2021/12/20 05:18:11;;;;;;;3.30;0.73;;;7.30;93.30;;;;;;4823533;29;20129;-77
2021/12/20 05:20:38;;;;;;;5.18;1.48;;;7.30;93.30;;;;;;4806952;29;20115;-77
2021/12/20 05:23:07;;;;;;;1.67;0.30;;;7.30;93.30;;;;;;4806741;29;20073;-77
2021/12/20 05:25:41;;;;;;;1.67;0.20;;;7.30;93.30;;;;;;4808267;29;20061;-77
2021/12/20 05:28:08;;;;;;;0.30;0.10;;;7.30;93.30;;;;;;4810714;29;20424;-77
2021/12/20 05:30:36;;;;;;;2.58;0.20;;;7.30;93.30;;;;;;4807464;29;20072;-77
2021/12/20 05:33:04;;;;;;;0.65;0.15;;;7.30;93.30;;;;;;4814146;29;20081;-77
2021/12/20 05:35:31;;;;;;;1.52;0.20;;;7.30;93.30;;;;;;4808025;29;20381;-77
2021/12/20 05:37:58;;;;;;;1.63;0.30;;;7.20;93.20;;;;;;4806309;29;20049;-77
2021/12/20 05:40:26;;;;;;;1.20;0.10;;;7.20;93.20;;;;;;4797589;29;20061;-77
2021/12/20 05:42:53;;;;;;;1.42;0.28;;;7.20;93.20;;;;;;4809187;29;20423;-77
2021/12/20 05:45:31;;;;;;;1.85;0.25;;;7.20;93.20;;;;;;4808366;29;20374;-77
2021/12/20 05:48:02;;;;;;;0.90;0.55;;;7.20;93.20;;;;;;4821718;29;20065;-77
2021/12/20 05:50:30;;;;;;;2.30;0.13;;;7.20;93.40;;;;;;4823355;29;20051;-77
2021/12/20 05:52:57;;;;;;;2.28;0.50;;;7.20;93.20;;;;;;4792200;29;20050;-78
2021/12/20 05:55:24;;;;;;;0.98;0.20;;;7.20;93.20;;;;;;4805293;29;20046;-77
2021/12/20 05:57:51;;;;;;;1.23;0.47;;;7.20;93.20;;;;;;4804230;29;20517;-77
2021/12/20 06:00:19;;;;;;;7.15;0.47;;;7.10;93.20;;;;;;4806118;29;20050;-77
2021/12/20 06:02:48;;;;;;;0.68;0.13;;;7.10;93.20;;;;;;4820635;29;20074;-77
2021/12/20 06:05:16;;;;;;;1.40;0.20;;;7.10;93.20;;;;;;4807699;29;20062;-77
2021/12/20 06:07:43;;;;;;;0.77;0.10;;;7.10;93.20;;;;;;4822175;29;20340;-77
2021/12/20 06:10:14;;;;;;;1.05;0.30;;;7.10;93.50;;;;;;4804594;29;20045;-77
2021/12/20 06:12:42;;;;;;;2.70;0.38;;;7.10;93.20;;;;;;4806930;29;20065;-77
2021/12/20 06:15:10;;;;;;;0.57;0.08;;;7.10;93.20;;;;;;4824109;29;20123;-77
2021/12/20 06:17:37;;;;;;;0.50;0.05;;;7.10;93.20;;;;;;4822026;29;20096;-78
2021/12/20 06:20:07;;;;;;;0.98;0.10;;;7.10;93.20;;;;;;4793672;29;20075;-77
2021/12/20 06:22:34;;;;;;;3.42;0.50;;;7.10;93.20;;;;;;4818354;29;20115;-77
2021/12/20 06:25:02;;;;;;;0.73;0.10;;;7.10;93.20;;;;;;4821769;29;20050;-77
2021/12/20 06:27:29;;;;;;;0.68;0.08;;;7.10;93.20;;;;;;4808732;29;20137;-77
2021/12/20 06:29:56;;;;;;;0.45;0.03;;;7.10;93.20;;;;;;4810059;29;20067;-77
2021/12/20 06:32:23;;;;;;;0.95;0.30;;;7.10;93.20;;;;;;4809215;29;20077;-77
2021/12/20 06:34:50;;;;;;;0.30;0.10;;;7.10;93.20;;;;;;4824639;29;20114;-77
2021/12/20 06:37:17;;;;;;;0.93;0.10;;;7.10;93.20;;;;;;4792868;29;20042;-77
2021/12/20 06:39:44;;;;;;;1.38;0.35;;;7.10;93.20;;;;;;4807525;29;20477;-77
2021/12/20 06:42:11;;;;;;;1.38;0.38;;;7.10;93.10;;;;;;4811818;29;20549;-76
2021/12/20 06:44:38;;;;;;;2.90;0.28;;;7.10;93.10;;;;;;4816369;29;20058;-80
2021/12/20 06:47:06;;;;;;;4.70;0.35;;;7.10;93.10;;;;;;4826781;29;20063;-76
2021/12/20 06:49:33;;;;;;;2.72;0.30;;;7.10;93.00;;;;;;4809229;29;20046;-76
2021/12/20 06:52:02;;;;;;;0.82;0.30;;;7.10;93.00;;;;;;4810369;29;20051;-79
2021/12/20 06:54:29;;;;;;;3.75;0.40;;;7.10;93.00;;;;;;4795635;29;20556;-76
2021/12/20 06:56:56;;;;;;;1.27;0.10;;;7.10;93.00;;;;;;4791890;29;20050;-80
2021/12/20 06:59:23;;;;;;;0.80;0.10;;;7.10;93.00;;;;;;4808592;29;20756;-79
2021/12/20 07:01:50;;;;;;;1.60;0.20;;;7.10;93.00;;;;;;4817239;29;20702;-76
2021/12/20 07:04:17;;;;;;;1.58;0.30;;;7.10;93.00;;;;;;4810242;29;20133;-79
2021/12/20 07:06:45;;;;;;;0.70;0.10;;;7.10;93.00;;;;;;4807744;29;20063;-80
2021/12/20 07:09:12;;;;;;;3.22;0.20;;;7.10;93.00;;;;;;4802659;29;20046;-79
2021/12/20 07:11:41;;;;;;;1.58;0.30;;;7.10;92.90;;;;;;4811290;29;20048;-79
2021/12/20 07:14:09;;;;;;;3.00;0.10;;;7.10;92.90;;;;;;4803540;29;20050;-78
2021/12/20 07:16:36;;;;;;;1.95;0.10;;;7.10;92.90;;;;;;4808442;29;20051;-78
2021/12/20 07:19:05;;;;;;;0.40;0.10;;;7.10;92.80;;;;;;4808235;29;20172;-80
2021/12/20 07:21:32;;;;;;;2.28;0.17;;;7.10;92.80;;;;;;4807616;29;20140;-80
2021/12/20 07:23:59;;;;;;;1.17;0.25;;;7.10;92.80;;;;;;4824042;29;20539;-80
2021/12/20 07:26:26;;;;;;;1.52;0.10;;;7.10;92.80;;;;;;4820085;29;20054;-79
2021/12/20 07:28:54;;;;;;;4.60;0.10;;;7.10;92.90;;;;;;4805552;29;20054;-77
2021/12/20 07:31:21;;;;;;;1.40;0.10;;;7.00;92.90;;;;;;4777556;29;20532;-76
2021/12/20 07:33:48;;;;;;;1.05;0.10;;;7.00;92.90;;;;;;4800081;29;20139;-76
2021/12/20 07:36:19;;;;;;;1.85;0.10;;;7.10;92.90;;;;;;4807885;29;20054;-76
2021/12/20 07:38:46;;;;;;;0.57;0.17;;;7.10;92.90;;;;;;4813305;29;20050;-75
2021/12/20 07:41:18;;;;;;;1.25;0.10;;;7.10;92.90;;;;;;4809026;29;20488;-75
2021/12/20 07:43:46;;;;;;;0.50;0.10;;;7.10;92.90;;;;;;4815574;29;20062;-76
2021/12/20 07:46:14;;;;;;;1.25;0.20;;;7.10;92.90;;;;;;4789493;29;20048;-75
2021/12/20 07:48:41;;;;;;;1.33;0.20;;;7.10;92.90;;;;;;4800863;29;20456;-76
2021/12/20 07:51:08;;;;;;;0.88;0.15;;;7.10;92.80;;;;;;4794266;29;20051;-75
2021/12/20 07:53:35;;;;;;;2.28;0.15;;;7.10;92.80;;;;;;4807417;29;20100;-75
2021/12/20 07:56:04;;;;;;;1.70;0.20;;;7.00;92.80;;;;;;4823421;29;20585;-75
2021/12/20 07:58:32;;;;;;;1.00;0.10;;;7.00;92.70;;;;;;4818739;29;20055;-75
2021/12/20 08:01:01;;;;;;;1.48;0.13;;;7.00;92.70;;;;;;4808856;29;20062;-75
2021/12/20 08:03:29;;;;;;;0.98;0.20;;;7.00;92.70;;;;;;4810597;29;20054;-76
2021/12/20 08:05:56;;;;;;;1.55;0.20;;;7.00;92.70;;;;;;4810492;29;20089;-76
2021/12/20 08:08:23;;;;;;;2.15;0.20;;;7.00;92.70;;;;;;4819037;29;20523;-75
2021/12/20 08:10:50;;;;;;;0.60;0.10;;;7.00;92.70;;;;;;4806637;29;20450;-76
2021/12/20 08:13:17;;;;;;;1.35;0.20;;;7.00;92.60;;;;;;4814633;29;20039;-76
2021/12/20 08:15:44;;;;;;;1.83;0.22;;;7.00;92.60;;;;;;4792149;29;20065;-76
2021/12/20 08:18:12;;;;;;;1.40;0.10;;;7.00;92.60;;;;;;4808429;29;20420;-76
2021/12/20 08:20:40;;;;;;;2.05;0.10;;;7.10;92.60;;;;;;4822619;29;20096;-76
2021/12/20 08:23:07;;;;;;;0.75;0.47;;;7.10;92.60;;;;;;4809814;29;20046;-75
2021/12/20 08:25:36;;;;;;;1.73;0.22;;;7.10;92.60;;;;;;4791939;29;20055;-76
2021/12/20 08:28:03;;;;;;;2.25;0.10;;;7.10;92.60;;;;;;4794423;29;20058;-76
2021/12/20 08:30:30;;;;;;;1.02;0.20;;;7.20;92.60;;;;;;4779390;29;20050;-75
2021/12/20 08:33:00;;;;;;;0.93;0.10;;;7.20;92.50;;;;;;4806003;29;20633;-79
2021/12/20 08:35:27;;;;;;;1.67;0.55;;;7.20;92.50;;;;;;4810129;29;20058;-79
2021/12/20 08:37:58;;;;;;;1.90;0.20;;;7.30;92.50;;;;;;4784368;29;20112;-79
2021/12/20 08:40:25;;;;;;;0.50;0.10;;;7.30;92.40;;;;;;4789898;29;20062;-79
2021/12/20 08:42:54;;;;;;;0.95;0.10;;;7.30;92.40;;;;;;4794393;29;20093;-79
2021/12/20 08:45:21;;;;;;;1.88;0.20;;;7.30;92.30;;;;;;4809947;29;20737;-79
2021/12/20 08:47:51;;;;;;;0.80;0.10;;;7.30;92.40;;;;;;4788976;29;20043;-78
2021/12/20 08:50:21;;;;;;;1.17;0.10;;;7.30;92.30;;;;;;4792587;29;20131;-78
2021/12/20 08:52:48;;;;;;;3.70;0.50;;;7.20;92.30;;;;;;4808984;29;20148;-78
2021/12/20 08:55:16;;;;;;;1.45;0.25;;;7.20;92.60;;;;;;4805006;29;20390;-79
2021/12/20 08:57:44;;;;;;;0.98;0.20;;;7.20;92.30;;;;;;4791303;29;20043;-78
2021/12/20 09:00:20;;;;;;;2.38;0.13;;;7.20;92.30;;;;;;4790062;29;20042;-76
2021/12/20 09:02:47;;;;;;;1.25;0.20;;;7.10;92.30;;;;;;4802822;29;20073;-75
2021/12/20 09:05:15;;;;;;;2.65;0.50;;;7.20;92.40;;;;;;4790577;29;20129;-77
2021/12/20 09:07:42;;;;;;;1.85;0.40;;;7.20;92.30;;;;;;4818898;29;20277;-76
2021/12/20 09:10:12;;;;;;;0.85;0.10;;;7.20;92.30;;;;;;4814644;29;20050;-78
2021/12/20 09:12:42;;;;;;;2.50;0.68;;;7.20;92.30;;;;;;4801220;29;20501;-79
2021/12/20 09:15:15;;;;;;;0.08;0.05;;;7.30;92.30;;;;;;4800979;29;20067;-80
2021/12/20 09:17:49;;;;;;;0.40;0.00;;;7.30;92.30;;;;;;4791110;29;20080;-80
2021/12/20 09:20:21;;;;;;;1.10;0.20;;;7.30;92.20;;;;;;4820774;29;20070;-79
2021/12/20 09:22:51;;;;;;;1.00;0.30;;;7.30;92.20;;;;;;4814272;29;20099;-79
2021/12/20 09:25:27;;;;;;;0.38;0.10;;;7.40;92.20;;;;;;4807446;29;20047;-78
2021/12/20 09:27:56;;;;;;;1.92;0.22;;;7.50;92.20;;;;;;4806640;29;20050;-76
2021/12/20 09:30:25;;;;;;;3.22;0.20;;;7.50;92.10;;;;;;4820727;29;20070;-76
2021/12/20 09:32:52;;;;;;;1.67;0.20;;;7.50;92.10;;;;;;4808834;29;20535;-76
2021/12/20 09:35:20;;;;;;;2.20;0.13;;;7.50;92.10;;;;;;4794196;29;20083;-79
2021/12/20 09:37:50;;;;;;;0.52;0.13;;;7.40;92.10;;;;;;4791642;29;20053;-81
2021/12/20 09:40:31;;;;;;;0.03;0.00;;;7.40;92.10;;;;;;4793844;29;20658;-88
2021/12/20 09:43:02;;;;;;;1.65;0.20;;;7.40;92.10;;;;;;4807301;29;20059;-90
2021/12/20 09:45:40;;;;;;;0.57;0.20;;;7.40;92.10;;;;;;4805912;29;20046;-93
2021/12/20 09:48:34;;;;;;;1.88;0.20;;;7.30;92.10;;;;;;4815015;29;20042;-90
2021/12/20 09:51:17;;;;;;;1.23;0.10;;;7.20;92.10;;;;;;4810172;29;20392;-78
2021/12/20 09:53:45;;;;;;;1.77;0.10;;;7.10;92.20;;;;;;4796779;29;20508;-82
2021/12/20 09:56:14;;;;;;;1.05;0.20;;;7.10;92.20;;;;;;4797946;29;20050;-81
2021/12/20 09:58:41;;;;;;;2.05;0.40;;;7.10;92.20;;;;;;4812090;29;20067;-79
2021/12/20 10:01:14;;;;;;;1.23;0.10;;;7.10;92.20;;;;;;4816564;29;20085;-82
2021/12/20 10:03:45;;;;;;;1.95;0.20;;;7.00;92.20;;;;;;4793477;29;20089;-77
2021/12/20 10:06:13;;;;;;;1.67;0.35;;;6.90;92.50;;;;;;4812746;29;20054;-83
2021/12/20 10:08:58;;;;;;;1.52;0.17;;;6.90;92.20;;;;;;4806661;29;20053;-89
2021/12/20 10:11:43;;;;;;;1.25;0.17;;;6.90;92.20;;;;;;4802055;29;20059;-77
2021/12/20 10:15:02;;;;;;;5.03;0.20;;;6.80;92.30;;;;;;4784083;29;20106;-79
2021/12/20 10:17:59;;;;;;;0.70;0.20;;;6.90;92.20;;;;;;4797814;29;20725;-78
2021/12/20 10:20:31;;;;;;;0.93;0.05;;;6.90;92.20;;;;;;4798019;29;20091;-81
2021/12/20 10:23:22;;;;;;;3.38;0.32;;;6.80;92.30;;;;;;4801387;29;20055;-85
2021/12/20 10:26:18;;;;;;;1.20;0.10;;;6.80;92.30;;;;;;4799664;29;20164;-86
2021/12/20 10:28:58;;;;;;;3.55;0.30;;;6.80;92.30;;;;;;4778544;29;20042;-80
2021/12/20 10:31:27;;;;;;;2.33;0.68;;;6.80;92.30;;;;;;4785942;29;20047;-78
2021/12/20 10:33:59;;;;;;;1.00;0.10;;;6.80;92.30;;;;;;4770286;29;20044;-87
2021/12/20 10:36:28;;;;;;;1.05;0.15;;;6.80;92.30;;;;;;4799783;29;21396;-77
2021/12/20 10:39:00;;;;;;;1.35;0.20;;;6.70;92.30;;;;;;4770435;29;20055;-82
2021/12/20 10:41:36;;;;;;;1.25;0.10;;;6.70;92.30;;;;;;4787566;29;20047;-86
2021/12/20 10:44:16;;;;;;;1.52;0.15;;;6.70;92.30;;;;;;4812025;29;20797;-89
2021/12/20 10:46:49;;;;;;;0.55;0.13;;;6.70;92.40;;;;;;4823023;29;20058;-78
2021/12/20 10:49:18;;;;;;;1.08;0.10;;;6.70;92.40;;;;;;4812907;29;20145;-82
2021/12/20 10:51:49;;;;;;;1.60;0.20;;;6.70;92.40;;;;;;4809685;29;20475;-78
2021/12/20 10:54:21;;;;;;;2.70;0.50;;;6.70;92.40;;;;;;4811084;29;20051;-80
2021/12/20 10:56:54;;;;;;;0.28;0.10;;;6.70;92.40;;;;;;4809501;29;20074;-79
2021/12/20 10:59:26;;;;;;;2.80;0.20;;;6.70;92.40;;;;;;4824193;29;20047;-78
2021/12/20 11:04:38;;;;;;;2.17;0.45;;;6.70;92.50;;;;;;4812456;29;20054;-81
2021/12/20 11:09:46;;;;;;;0.82;0.10;;;6.60;92.40;;;;;;4824696;29;20146;-79
2021/12/20 11:12:40;;;;;;;0.65;0.13;;;6.60;92.50;;;;;;4810602;29;20046;-81
2021/12/20 11:15:16;;;;;;;3.50;0.28;;;6.70;92.50;;;;;;4802674;29;20050;-83
2021/12/20 11:22:34;;;;;;;0.90;0.20;;;6.60;92.40;;;;;;4811270;29;20061;-83
2021/12/20 11:25:12;;;;;;;3.38;0.50;;;6.60;92.40;;;;;;4810615;29;20306;-81
2021/12/20 11:27:51;;;;;;;2.53;0.40;;;6.60;92.40;;;;;;4807820;29;20127;-83
2021/12/20 11:30:26;;;;;;;4.35;0.40;;;6.70;92.40;;;;;;4822286;29;20719;-79
2021/12/20 11:32:55;;;;;;;2.92;0.50;;;6.70;92.40;;;;;;4810259;29;20062;-79
2021/12/20 11:35:27;;;;;;;2.10;0.25;;;6.70;92.40;;;;;;4811056;29;20138;-80
2021/12/20 11:37:56;;;;;;;2.42;0.30;;;6.70;92.40;;;;;;4809950;29;20146;-78
2021/12/20 11:40:32;;;;;;;1.58;0.20;;;6.70;92.40;;;;;;4810910;29;20051;-79
2021/12/20 11:43:33;;;;;;;3.60;0.40;;;6.70;92.40;;;;;;4811345;29;20575;-85
2021/12/20 11:46:47;;;;;;;2.53;0.20;;;6.70;92.40;;;;;;4817170;29;20081;-79
2021/12/20 11:49:40;;;;;;;0.65;0.17;;;6.70;92.40;;;;;;4811170;29;20085;-84
2021/12/20 11:52:15;;;;;;;1.23;0.10;;;6.70;92.40;;;;;;4786572;29;20042;-78
2021/12/20 11:54:51;;;;;;;1.88;0.28;;;6.70;92.40;;;;;;4805604;29;20153;-76
2021/12/20 11:57:30;;;;;;;2.58;0.68;;;6.70;92.40;;;;;;4806786;29;20050;-77
2021/12/20 12:00:22;;;;;;;1.10;0.20;;;6.80;92.30;;;;;;4806816;29;20528;-81
2021/12/20 12:03:04;;;;;;;1.08;0.05;;;6.80;92.30;;;;;;4802682;29;20058;-77
2021/12/20 12:05:49;;;;;;;2.55;0.20;;;6.80;92.20;;;;;;4796817;29;20060;-79
2021/12/20 12:08:34;;;;;;;1.30;0.20;;;6.80;92.10;;;;;;4807925;29;20061;-79
2021/12/20 12:11:07;;;;;;;1.80;0.10;;;6.80;92.10;;;;;;4804958;29;20059;-79
2021/12/20 12:14:05;;;;;;;1.10;0.13;;;6.80;92.10;;;;;;4805726;29;20119;-80
2021/12/20 12:16:58;;;;;;;0.88;0.28;;;6.80;92.00;;;;;;4803994;29;20119;-76
2021/12/20 12:19:48;;;;;;;2.30;0.32;;;6.80;92.00;;;;;;4805291;29;20059;-80
2021/12/20 12:22:40;;;;;;;2.47;0.20;;;6.90;92.00;;;;;;4803816;29;20142;-86
2021/12/20 12:25:47;;;;;;;0.98;0.13;;;6.90;91.90;;;;;;4809572;29;20065;-86
2021/12/20 12:29:05;;;;;;;2.38;0.30;;;6.80;91.90;;;;;;4808111;29;20054;-85
2021/12/20 12:31:50;;;;;;;3.25;0.30;;;6.90;91.90;;;;;;4796605;29;20057;-84
2021/12/20 12:34:20;;;;;;;1.17;0.10;;;6.80;91.90;;;;;;4808335;29;20768;-82
2021/12/20 12:37:36;;;;;;;;;;;;;;;;;;;;;
2021/12/20 12:44:17;;;;;;;1.17;0.10;;;6.80;92.00;;;;;;4929013;23;20506;-90
2021/12/20 12:46:51;;;;;;;1.15;0.20;;;6.80;92.10;;;;;;4846174;29;20054;-82
2021/12/20 12:49:36;;;;;;;0.60;0.28;;;6.80;92.10;;;;;;4841943;29;20065;-82
2021/12/20 12:52:16;;;;;;;0.90;0.20;;;6.80;92.10;;;;;;4844284;29;20042;-80
2021/12/20 12:55:15;;;;;;;0.52;0.10;;;6.70;92.10;;;;;;4837811;29;20095;-84
2021/12/20 12:57:46;;;;;;;0.80;0.10;;;6.80;92.10;;;;;;4830319;29;20092;-88
2021/12/20 13:00:26;;;;;;;2.57;0.43;;;6.80;92.00;;;;;;4844900;29;20058;-82
2021/12/20 13:03:07;;;;;;;1.58;0.38;;;6.80;92.00;;;;;;4842322;29;20410;-81
2021/12/20 13:05:38;;;;;;;2.15;0.30;;;6.80;91.90;;;;;;4843860;29;20046;-82
2021/12/20 13:08:13;;;;;;;4.20;0.25;;;6.90;91.90;;;;;;4844944;29;20078;-82
2021/12/20 13:10:43;;;;;;;1.08;0.43;;;6.80;91.90;;;;;;4827236;29;20076;-82
2021/12/20 13:15:54;;;;;;;1.05;0.38;;;6.90;91.90;;;;;;4841879;29;20053;-77
2021/12/20 13:18:58;;;;;;;1.42;0.13;;;6.90;91.90;;;;;;4845005;29;20055;-78
2021/12/20 13:21:20;;;;;;;1.70;0.25;;;6.90;91.80;;;;;;4842606;29;20057;-83
2021/12/20 13:23:49;;;;;;;3.33;0.85;;;6.90;91.90;;;;;;4829282;29;20085;-84
2021/12/20 13:26:21;;;;;;;2.70;0.40;;;7.00;91.90;;;;;;4827851;29;20050;-81
2021/12/20 13:28:55;;;;;;;1.95;0.40;;;7.00;91.80;;;;;;4826706;29;20121;-82
2021/12/20 13:31:29;;;;;;;1.05;0.13;;;7.00;91.80;;;;;;4815870;29;20103;-83
2021/12/20 13:34:00;;;;;;;2.20;0.35;;;7.10;91.80;;;;;;4834451;29;20050;-77
2021/12/20 13:36:33;;;;;;;2.33;0.82;;;7.10;91.80;;;;;;4842940;29;20061;-84
2021/12/20 13:39:07;;;;;;;3.08;0.40;;;7.10;91.80;;;;;;4837340;29;20057;-82
2021/12/20 13:41:48;;;;;;;2.50;0.30;;;7.00;91.70;;;;;;4821146;29;20070;-81
2021/12/20 13:44:26;;;;;;;3.67;0.20;;;7.00;91.70;;;;;;4826637;29;20061;-80
2021/12/20 13:47:01;;;;;;;1.67;0.20;;;7.00;91.80;;;;;;4839266;29;20458;-81
2021/12/20 13:49:29;;;;;;;1.35;0.32;;;6.90;91.80;;;;;;4835231;29;20082;-80